Time,TemperatureF,DewpointF,PressureIn,WindDirection,WindDirectionDegrees,WindSpeedMPH,WindSpeedGustMPH,Humidity,HourlyPrecipIn,Conditions,Clouds,dailyrainin,SolarRadiationWatts/m^2,SoftwareType,DateUTC
2013-06-29 00:00:00,58.3,48.2,29.86,WNW,285,2.0,2.0,69,0.00,,,0.00,0,Wunderground v.1.15,2013-06-29 06:00:00,
2013-06-29 00:10:00,57.4,47.7,29.86,WNW,288,1.0,1.0,70,0.00,,,0.00,0,Wunderground v.1.15,2013-06-29 06:10:00,
2013-06-29 00:20:00,57.1,48.2,29.86,WNW,288,0.0,0.0,72,0.00,,,0.00,0,Wunderground v.1.15,2013-06-29 06:20:00,
2013-06-29 00:31:00,56.8,47.5,29.86,WNW,296,1.0,2.0,71,0.00,,,0.00,0,Wunderground v.1.15,2013-06-29 06:31:00,
2013-06-29 00:40:00,56.5,47.6,29.85,WNW,297,0.0,0.0,72,0.00,,,0.00,0,Wunderground v.1.15,2013-06-29 06:40:00,
2013-06-29 00:50:00,56.3,47.8,29.85,WNW,297,0.0,0.0,73,0.00,,,0.00,0,Wunderground v.1.15,2013-06-29 06:50:00,
2013-06-29 01:01:00,55.8,46.9,29.85,WNW,297,1.0,2.0,72,0.00,,,0.00,0,Wunderground v.1.15,2013-06-29 07:01:00,
2013-06-29 01:10:00,55.0,46.5,29.85,WNW,297,1.0,1.0,73,0.00,,,0.00,0,Wunderground v.1.15,2013-06-29 07:10:00,
2013-06-29 01:20:00,54.4,47.3,29.85,WNW,296,1.0,4.0,77,0.00,,,0.00,0,Wunderground v.1.15,2013-06-29 07:20:00,
2013-06-29 01:30:00,54.4,47.0,29.85,WNW,296,3.0,3.0,76,0.00,,,0.00,0,Wunderground v.1.15,2013-06-29 07:30:00,
2013-06-29 01:40:00,53.9,46.2,29.85,WNW,296,0.0,0.0,75,0.00,,,0.00,0,Wunderground v.1.15,2013-06-29 07:40:00,
2013-06-29 01:51:00,53.2,46.2,29.85,WNW,296,0.0,0.0,77,0.00,,,0.00,0,Wunderground v.1.15,2013-06-29 07:51:00,
2013-06-29 02:01:00,52.8,46.1,29.85,WNW,296,0.0,0.0,78,0.00,,,0.00,0,Wunderground v.1.15,2013-06-29 08:01:00,
2013-06-29 02:10:00,52.7,46.4,29.85,NNW,328,0.0,2.0,79,0.00,,,0.00,0,Wunderground v.1.15,2013-06-29 08:10:00,
2013-06-29 02:20:00,52.2,45.5,29.85,WNW,297,3.0,3.0,78,0.00,,,0.00,0,Wunderground v.1.15,2013-06-29 08:20:00,
2013-06-29 02:30:00,52.0,45.4,29.85,WNW,297,1.0,1.0,78,0.00,,,0.00,0,Wunderground v.1.15,2013-06-29 08:30:00,
2013-06-29 02:40:00,51.5,45.2,29.84,WNW,297,0.0,0.0,79,0.00,,,0.00,0,Wunderground v.1.15,2013-06-29 08:40:00,
2013-06-29 02:50:00,51.2,45.6,29.84,WNW,297,0.0,0.0,81,0.00,,,0.00,0,Wunderground v.1.15,2013-06-29 08:50:00,
2013-06-29 03:00:00,51.3,46.0,29.84,WNW,297,0.0,0.0,82,0.00,,,0.00,0,Wunderground v.1.15,2013-06-29 09:00:00,
2013-06-29 03:11:00,50.9,45.6,29.84,WNW,297,0.0,0.0,82,0.00,,,0.00,0,Wunderground v.1.15,2013-06-29 09:11:00,
2013-06-29 03:20:00,50.7,45.4,29.84,WNW,297,0.0,0.0,82,0.00,,,0.00,0,Wunderground v.1.15,2013-06-29 09:20:00,
2013-06-29 03:30:00,50.1,45.1,29.84,WNW,297,0.0,0.0,83,0.00,,,0.00,0,Wunderground v.1.15,2013-06-29 09:30:00,
2013-06-29 03:40:00,49.9,45.3,29.84,WNW,297,0.0,0.0,84,0.00,,,0.00,0,Wunderground v.1.15,2013-06-29 09:40:00,
2013-06-29 03:50:00,49.9,44.9,29.83,WNW,297,0.0,0.0,83,0.00,,,0.00,0,Wunderground v.1.15,2013-06-29 09:50:00,
2013-06-29 04:00:00,49.9,44.9,29.83,WNW,297,1.0,1.0,83,0.00,,,0.00,0,Wunderground v.1.15,2013-06-29 10:00:00,
2013-06-29 04:10:00,49.6,44.6,29.84,WNW,297,0.0,0.0,83,0.00,,,0.00,0,Wunderground v.1.15,2013-06-29 10:10:00,
2013-06-29 04:20:00,49.6,44.6,29.84,WNW,297,0.0,0.0,83,0.00,,,0.00,0,Wunderground v.1.15,2013-06-29 10:20:00,
2013-06-29 04:30:00,49.4,44.5,29.84,NNW,333,2.0,2.0,83,0.00,,,0.00,0,Wunderground v.1.15,2013-06-29 10:30:00,
2013-06-29 04:40:00,49.2,44.6,29.84,NW,315,2.0,3.0,84,0.00,,,0.00,0,Wunderground v.1.15,2013-06-29 10:40:00,
2013-06-29 04:50:00,49.4,44.5,29.84,NW,315,2.0,3.0,83,0.00,,,0.00,0,Wunderground v.1.15,2013-06-29 10:50:00,
2013-06-29 05:00:00,49.2,44.3,29.84,NW,315,2.0,2.0,83,0.00,,,0.00,0,Wunderground v.1.15,2013-06-29 11:00:00,
2013-06-29 05:11:00,48.9,44.3,29.84,NW,315,0.0,0.0,84,0.00,,,0.00,0,Wunderground v.1.15,2013-06-29 11:11:00,
2013-06-29 05:21:00,49.2,44.9,29.84,NW,314,2.0,2.0,85,0.00,,,0.00,0,Wunderground v.1.15,2013-06-29 11:21:00,
2013-06-29 05:30:00,49.0,44.4,29.84,NW,314,2.0,2.0,84,0.00,,,0.00,0,Wunderground v.1.15,2013-06-29 11:30:00,
2013-06-29 05:40:00,48.9,44.6,29.84,NW,321,1.0,3.0,85,0.00,,,0.00,9,Wunderground v.1.15,2013-06-29 11:40:00,
2013-06-29 05:50:00,49.4,45.1,29.84,NNW,327,1.0,1.0,85,0.00,,,0.00,21,Wunderground v.1.15,2013-06-29 11:50:00,
2013-06-29 06:00:00,49.7,45.4,29.84,NW,313,0.0,0.0,85,0.00,,,0.00,25,Wunderground v.1.15,2013-06-29 12:00:00,
2013-06-29 06:11:00,50.5,46.2,29.84,NW,307,0.0,0.0,85,0.00,,,0.00,25,Wunderground v.1.15,2013-06-29 12:11:00,
2013-06-29 06:20:00,51.2,46.5,29.84,NNW,329,0.0,0.0,84,0.00,,,0.00,30,Wunderground v.1.15,2013-06-29 12:20:00,
2013-06-29 06:41:00,53.5,48.8,29.84,NW,316,0.0,0.0,84,0.00,,,0.00,32,Wunderground v.1.15,2013-06-29 12:41:00,
2013-06-29 06:51:00,54.4,50.0,29.84,NW,316,0.0,0.0,85,0.00,,,0.00,49,Wunderground v.1.15,2013-06-29 12:51:00,
2013-06-29 07:00:00,55.6,50.5,29.84,NW,316,0.0,0.0,83,0.00,,,0.00,53,Wunderground v.1.15,2013-06-29 13:00:00,
2013-06-29 07:10:00,57.1,51.7,29.84,NW,311,0.0,0.0,82,0.00,,,0.00,156,Wunderground v.1.15,2013-06-29 13:10:00,
2013-06-29 07:20:00,59.0,51.8,29.84,NW,311,0.0,0.0,77,0.00,,,0.00,160,Wunderground v.1.15,2013-06-29 13:20:00,
2013-06-29 07:30:00,60.4,52.4,29.84,NW,311,0.0,0.0,75,0.00,,,0.00,309,Wunderground v.1.15,2013-06-29 13:30:00,
2013-06-29 07:51:00,63.1,52.4,29.83,East,96,1.0,8.0,68,0.00,,,0.00,376,Wunderground v.1.15,2013-06-29 13:51:00,
2013-06-29 08:00:00,63.2,52.1,29.84,ESE,121,2.0,2.0,67,0.00,,,0.00,411,Wunderground v.1.15,2013-06-29 14:00:00,
2013-06-29 08:11:00,64.1,51.2,29.84,SE,125,0.0,0.0,63,0.00,,,0.00,441,Wunderground v.1.15,2013-06-29 14:11:00,
2013-06-29 08:31:00,65.8,52.0,29.84,SE,125,0.0,0.0,61,0.00,,,0.00,512,Wunderground v.1.15,2013-06-29 14:31:00,
2013-06-29 08:40:00,67.3,52.5,29.83,SE,141,0.0,0.0,59,0.00,,,0.00,541,Wunderground v.1.15,2013-06-29 14:40:00,
2013-06-29 08:51:00,69.0,53.1,29.83,ESE,104,0.0,0.0,57,0.00,,,0.00,571,Wunderground v.1.15,2013-06-29 14:51:00,
2013-06-29 09:00:00,69.5,54.5,29.83,ESE,113,3.0,9.0,59,0.00,,,0.00,601,Wunderground v.1.15,2013-06-29 15:00:00,
2013-06-29 09:10:00,70.5,51.5,29.83,NNE,22,5.0,8.0,51,0.00,,,0.00,636,Wunderground v.1.15,2013-06-29 15:10:00,
2013-06-29 09:20:00,72.9,52.1,29.83,NNE,24,5.0,5.0,48,0.00,,,0.00,657,Wunderground v.1.15,2013-06-29 15:20:00,
2013-06-29 09:30:00,72.8,50.2,29.83,East,80,10.0,10.0,45,0.00,,,0.00,689,Wunderground v.1.15,2013-06-29 15:30:00,
2013-06-29 09:40:00,72.3,50.9,29.83,East,95,7.0,8.0,47,0.00,,,0.00,715,Wunderground v.1.15,2013-06-29 15:40:00,
2013-06-29 09:51:00,72.7,50.1,29.82,ENE,76,5.0,8.0,45,0.00,,,0.00,744,Wunderground v.1.15,2013-06-29 15:51:00,
2013-06-29 10:00:00,72.6,48.8,29.82,SE,131,4.0,6.0,43,0.00,,,0.00,772,Wunderground v.1.15,2013-06-29 16:00:00,
2013-06-29 10:10:00,72.7,50.7,29.82,SE,132,3.0,7.0,46,0.00,,,0.00,793,Wunderground v.1.15,2013-06-29 16:10:00,
2013-06-29 10:20:00,72.8,49.6,29.82,SE,125,6.0,6.0,44,0.00,,,0.00,826,Wunderground v.1.15,2013-06-29 16:20:00,
2013-06-29 10:30:00,74.4,50.4,29.82,East,89,9.0,9.0,43,0.00,,,0.00,868,Wunderground v.1.15,2013-06-29 16:30:00,
2013-06-29 10:41:00,74.6,50.6,29.81,North,360,8.0,9.0,43,0.00,,,0.00,879,Wunderground v.1.15,2013-06-29 16:41:00,
2013-06-29 10:50:00,74.4,51.7,29.81,ENE,58,11.0,11.0,45,0.00,,,0.00,902,Wunderground v.1.15,2013-06-29 16:50:00,
2013-06-29 11:00:00,75.2,51.2,29.81,ENE,69,8.0,8.0,43,0.00,,,0.00,928,Wunderground v.1.15,2013-06-29 17:00:00,
2013-06-29 11:10:00,75.1,52.3,29.81,ESE,109,9.0,9.0,45,0.00,,,0.00,947,Wunderground v.1.15,2013-06-29 17:10:00,
2013-06-29 11:30:00,77.3,50.4,29.81,East,93,9.0,9.0,39,0.00,,,0.00,1004,Wunderground v.1.15,2013-06-29 17:30:00,
2013-06-29 11:41:00,76.9,50.7,29.81,SE,136,8.0,8.0,40,0.00,,,0.00,1013,Wunderground v.1.15,2013-06-29 17:41:00,
2013-06-29 11:50:00,77.5,50.6,29.81,SE,144,7.0,14.0,39,0.00,,,0.00,1032,Wunderground v.1.15,2013-06-29 17:50:00,
2013-06-29 12:00:00,76.8,50.6,29.81,East,85,8.0,8.0,40,0.00,,,0.00,1058,Wunderground v.1.15,2013-06-29 18:00:00,
2013-06-29 12:10:00,77.7,50.1,29.80,ESE,120,7.0,8.0,38,0.00,,,0.00,1069,Wunderground v.1.15,2013-06-29 18:10:00,
2013-06-29 12:21:00,77.3,50.4,29.80,East,85,8.0,10.0,39,0.00,,,0.00,1097,Wunderground v.1.15,2013-06-29 18:21:00,
2013-06-29 12:41:00,77.5,49.2,29.80,ENE,65,11.0,12.0,37,0.00,,,0.00,288,Wunderground v.1.15,2013-06-29 18:41:00,
2013-06-29 12:51:00,78.2,49.8,29.80,East,84,9.0,9.0,37,0.00,,,0.00,1157,Wunderground v.1.15,2013-06-29 18:51:00,
2013-06-29 13:01:00,78.9,50.4,29.79,East,99,11.0,13.0,37,0.00,,,0.00,1042,Wunderground v.1.15,2013-06-29 19:01:00,
2013-06-29 13:10:00,78.7,50.2,29.79,East,94,11.0,14.0,37,0.00,,,0.00,1049,Wunderground v.1.15,2013-06-29 19:10:00,
2013-06-29 13:20:00,79.2,49.9,29.79,ENE,70,10.0,10.0,36,0.00,,,0.00,1069,Wunderground v.1.15,2013-06-29 19:20:00,
2013-06-29 13:31:00,79.2,47.6,29.78,NNE,25,9.0,9.0,33,0.00,,,0.00,1092,Wunderground v.1.15,2013-06-29 19:31:00,
2013-06-29 13:40:00,78.5,47.8,29.78,ESE,115,7.0,12.0,34,0.00,,,0.00,1116,Wunderground v.1.15,2013-06-29 19:40:00,
2013-06-29 13:50:00,78.3,45.2,29.78,ENE,78,10.0,11.0,31,0.00,,,0.00,141,Wunderground v.1.15,2013-06-29 19:50:00,
2013-06-29 14:00:00,76.9,44.0,29.78,ENE,67,9.0,11.0,31,0.00,,,0.00,181,Wunderground v.1.15,2013-06-29 20:00:00,
2013-06-29 14:11:00,79.8,45.6,29.77,ENE,78,8.0,8.0,30,0.00,,,0.00,1076,Wunderground v.1.15,2013-06-29 20:11:00,
2013-06-29 14:20:00,80.6,45.4,29.77,NNE,33,12.0,12.0,29,0.00,,,0.00,1099,Wunderground v.1.15,2013-06-29 20:20:00,
2013-06-29 14:30:00,79.0,43.1,29.76,ENE,61,10.0,19.0,28,0.00,,,0.00,984,Wunderground v.1.15,2013-06-29 20:30:00,
2013-06-29 14:51:00,80.2,44.1,29.76,North,360,12.0,12.0,28,0.00,,,0.00,986,Wunderground v.1.15,2013-06-29 20:51:00,
2013-06-29 15:00:00,80.5,42.4,29.76,NE,44,13.0,13.0,26,0.00,,,0.00,967,Wunderground v.1.15,2013-06-29 21:00:00,
2013-06-29 15:10:00,81.2,42.0,29.76,NNE,21,11.0,15.0,25,0.00,,,0.00,904,Wunderground v.1.15,2013-06-29 21:10:00,
2013-06-29 15:21:00,81.6,42.4,29.76,NNE,27,13.0,16.0,25,0.00,,,0.00,882,Wunderground v.1.15,2013-06-29 21:21:00,
2013-06-29 15:30:00,80.6,40.5,29.76,NNE,32,13.0,13.0,24,0.00,,,0.00,756,Wunderground v.1.15,2013-06-29 21:30:00,
2013-06-29 15:41:00,79.9,41.9,29.76,ENE,61,13.0,13.0,26,0.00,,,0.00,809,Wunderground v.1.15,2013-06-29 21:41:00,
2013-06-29 15:51:00,80.0,41.0,29.77,NE,40,13.0,13.0,25,0.00,,,0.00,802,Wunderground v.1.15,2013-06-29 21:51:00,
2013-06-29 16:00:00,79.8,41.9,29.76,NE,42,11.0,11.0,26,0.00,,,0.00,826,Wunderground v.1.15,2013-06-29 22:00:00,
2013-06-29 16:20:00,80.5,42.4,29.76,SE,142,11.0,11.0,26,0.00,,,0.00,770,Wunderground v.1.15,2013-06-29 22:20:00,
2013-06-29 16:31:00,80.7,44.6,29.76,ENE,77,8.0,8.0,28,0.00,,,0.00,766,Wunderground v.1.15,2013-06-29 22:31:00,
2013-06-29 16:40:00,79.5,42.6,29.76,ENE,61,8.0,11.0,27,0.00,,,0.00,703,Wunderground v.1.15,2013-06-29 22:40:00,
2013-06-29 16:50:00,78.6,41.8,29.76,ENE,69,11.0,11.0,27,0.00,,,0.00,403,Wunderground v.1.15,2013-06-29 22:50:00,
2013-06-29 17:00:00,78.0,42.2,29.75,East,100,10.0,11.0,28,0.00,,,0.00,392,Wunderground v.1.15,2013-06-29 23:00:00,
2013-06-29 17:10:00,77.8,41.1,29.75,ENE,60,11.0,13.0,27,0.00,,,0.00,327,Wunderground v.1.15,2013-06-29 23:10:00,
2013-06-29 17:20:00,77.8,41.1,29.75,ENE,78,9.0,18.0,27,0.00,,,0.00,490,Wunderground v.1.15,2013-06-29 23:20:00,
2013-06-29 17:30:00,77.3,43.4,29.76,East,80,11.0,11.0,30,0.00,,,0.00,311,Wunderground v.1.15,2013-06-29 23:30:00,
2013-06-29 17:40:00,77.5,43.6,29.76,ESE,107,10.0,10.0,30,0.00,,,0.00,612,Wunderground v.1.15,2013-06-29 23:40:00,
2013-06-29 17:50:00,76.8,44.7,29.75,ESE,115,10.0,16.0,32,0.00,,,0.00,341,Wunderground v.1.15,2013-06-29 23:50:00,
2013-06-29 18:00:00,74.7,47.4,29.76,ESE,113,13.0,13.0,38,0.00,,,0.00,192,Wunderground v.1.15,2013-06-30 00:00:00,
2013-06-29 18:10:00,73.9,48.7,29.76,SE,145,6.0,11.0,41,0.00,,,0.00,179,Wunderground v.1.15,2013-06-30 00:10:00,
2013-06-29 18:20:00,72.4,48.6,29.77,SE,143,8.0,9.0,43,0.00,,,0.00,134,Wunderground v.1.15,2013-06-30 00:20:00,
2013-06-29 18:41:00,71.4,51.2,29.77,SE,126,2.0,2.0,49,0.00,,,0.00,148,Wunderground v.1.15,2013-06-30 00:41:00,
2013-06-29 18:50:00,71.3,50.6,29.77,ESE,123,1.0,2.0,48,0.00,,,0.00,163,Wunderground v.1.15,2013-06-30 00:50:00,
2013-06-29 19:00:00,71.2,49.4,29.77,ESE,121,3.0,3.0,46,0.00,,,0.00,195,Wunderground v.1.15,2013-06-30 01:00:00,
2013-06-29 19:11:00,70.8,49.0,29.77,SE,134,3.0,3.0,46,0.00,,,0.00,113,Wunderground v.1.15,2013-06-30 01:11:00,
2013-06-29 19:21:00,70.6,50.5,29.77,SE,131,1.0,1.0,49,0.00,,,0.00,116,Wunderground v.1.15,2013-06-30 01:21:00,
2013-06-29 19:30:00,70.4,48.6,29.78,ESE,118,2.0,18.0,46,0.00,,,0.00,62,Wunderground v.1.15,2013-06-30 01:30:00,
2013-06-29 19:41:00,67.9,47.5,29.79,East,101,16.0,16.0,48,0.00,,,0.00,54,Wunderground v.1.15,2013-06-30 01:41:00,
2013-06-29 19:50:00,66.7,46.9,29.80,ESE,102,11.0,16.0,49,0.00,,,0.00,32,Wunderground v.1.15,2013-06-30 01:50:00,
2013-06-29 20:00:00,66.3,47.6,29.79,South,171,3.0,3.0,51,0.00,,,0.00,37,Wunderground v.1.15,2013-06-30 02:00:00,
2013-06-29 20:10:00,65.8,46.6,29.80,SE,138,0.0,0.0,50,0.00,,,0.00,30,Wunderground v.1.15,2013-06-30 02:10:00,
2013-06-29 20:20:00,65.5,46.4,29.80,South,175,1.0,1.0,50,0.00,,,0.00,19,Wunderground v.1.15,2013-06-30 02:20:00,
2013-06-29 20:40:00,64.5,47.0,29.82,South,182,0.0,0.0,53,0.00,,,0.00,0,Wunderground v.1.15,2013-06-30 02:40:00,
2013-06-29 20:50:00,63.7,47.7,29.82,South,187,0.0,0.0,56,0.00,,,0.00,0,Wunderground v.1.15,2013-06-30 02:50:00,
2013-06-29 21:00:00,62.7,47.7,29.82,South,187,0.0,0.0,58,0.00,,,0.00,0,Wunderground v.1.15,2013-06-30 03:00:00,
2013-06-29 21:10:00,61.8,47.3,29.82,South,187,0.0,0.0,59,0.00,,,0.00,0,Wunderground v.1.15,2013-06-30 03:10:00,
2013-06-29 21:30:00,60.5,47.0,29.82,South,187,0.0,0.0,61,0.00,,,0.00,0,Wunderground v.1.15,2013-06-30 03:30:00,
2013-06-29 21:40:00,60.3,48.1,29.83,South,189,1.0,1.0,64,0.00,,,0.00,0,Wunderground v.1.15,2013-06-30 03:40:00,
2013-06-29 21:51:00,59.8,47.6,29.83,SW,221,1.0,1.0,64,0.00,,,0.00,0,Wunderground v.1.15,2013-06-30 03:51:00,
2013-06-29 22:01:00,60.0,46.5,29.84,SW,221,0.0,0.0,61,0.00,,,0.00,0,Wunderground v.1.15,2013-06-30 04:01:00,
2013-06-29 22:20:00,59.7,46.2,29.85,SW,230,1.0,1.0,61,0.00,,,0.00,0,Wunderground v.1.15,2013-06-30 04:20:00,
2013-06-29 22:30:00,59.8,46.7,29.85,SW,234,1.0,1.0,62,0.00,,,0.00,0,Wunderground v.1.15,2013-06-30 04:30:00,
2013-06-29 22:40:00,60.1,45.7,29.86,WSW,238,0.0,0.0,59,0.00,,,0.00,0,Wunderground v.1.15,2013-06-30 04:40:00,
2013-06-29 22:50:00,60.7,47.6,29.87,WSW,252,0.0,0.0,62,0.00,,,0.00,0,Wunderground v.1.15,2013-06-30 04:50:00,
2013-06-29 23:10:00,61.8,48.6,29.87,North,360,1.0,6.0,62,0.00,,,0.00,0,Wunderground v.1.15,2013-06-30 05:10:00,
2013-06-29 23:20:00,61.2,49.3,29.85,ENE,57,8.0,8.0,65,0.00,,,0.00,0,Wunderground v.1.15,2013-06-30 05:20:00,
2013-06-29 23:31:00,60.2,50.8,29.86,NNW,342,2.0,2.0,71,0.00,,,0.00,0,Wunderground v.1.15,2013-06-30 05:31:00,
2013-06-29 23:40:00,57.7,50.2,29.86,WNW,298,1.0,2.0,76,0.00,,,0.00,0,Wunderground v.1.15,2013-06-30 05:40:00,
2013-06-29 23:50:00,56.0,49.9,29.86,NNW,342,2.0,7.0,80,0.00,,,0.01,0,Wunderground v.1.15,2013-06-30 05:50:00,